sensor_id;sensor_type;location;lat;lon;timestamp;temperature;humidity
23329;DHT22;11836;51.050;3.716;2023-03-17T00:01:37;16.80;97.90
23329;DHT22;11836;51.050;3.716;2023-03-17T00:04:11;16.80;97.80
23329;DHT22;11836;51.050;3.716;2023-03-17T00:06:38;16.80;97.80
23329;DHT22;11836;51.050;3.716;2023-03-17T00:09:13;16.80;97.90
23329;DHT22;11836;51.050;3.716;2023-03-17T00:11:39;16.80;97.90
23329;DHT22;11836;51.050;3.716;2023-03-17T00:14:05;16.80;97.80
23329;DHT22;11836;51.050;3.716;2023-03-17T00:16:35;16.80;97.90
23329;DHT22;11836;51.050;3.716;2023-03-17T00:19:01;16.70;97.90
23329;DHT22;11836;51.050;3.716;2023-03-17T00:21:33;16.70;97.90
23329;DHT22;11836;51.050;3.716;2023-03-17T00:24:00;16.70;97.90
23329;DHT22;11836;51.050;3.716;2023-03-17T00:26:26;16.70;97.90
23329;DHT22;11836;51.050;3.716;2023-03-17T00:28:53;16.70;97.90
23329;DHT22;11836;51.050;3.716;2023-03-17T00:31:29;16.70;97.90
23329;DHT22;11836;51.050;3.716;2023-03-17T00:33:55;16.70;97.90
23329;DHT22;11836;51.050;3.716;2023-03-17T00:36:29;16.70;97.90
23329;DHT22;11836;51.050;3.716;2023-03-17T00:38:56;16.70;97.90
23329;DHT22;11836;51.050;3.716;2023-03-17T00:41:31;16.70;97.80
23329;DHT22;11836;51.050;3.716;2023-03-17T00:43:57;16.70;97.80
23329;DHT22;11836;51.050;3.716;2023-03-17T00:46:27;16.60;97.80
23329;DHT22;11836;51.050;3.716;2023-03-17T00:49:09;16.60;97.90
23329;DHT22;11836;51.050;3.716;2023-03-17T00:51:38;16.60;98.00
23329;DHT22;11836;51.050;3.716;2023-03-17T00:54:03;16.60;98.00
23329;DHT22;11836;51.050;3.716;2023-03-17T00:56:29;16.60;98.00
23329;DHT22;11836;51.050;3.716;2023-03-17T00:58:55;16.60;98.00
23329;DHT22;11836;51.050;3.716;2023-03-17T01:01:21;16.60;98.00
23329;DHT22;11836;51.050;3.716;2023-03-17T01:03:46;16.60;98.10
23329;DHT22;11836;51.050;3.716;2023-03-17T01:06:13;16.50;98.10
23329;DHT22;11836;51.050;3.716;2023-03-17T01:08:40;16.60;98.10
23329;DHT22;11836;51.050;3.716;2023-03-17T01:11:15;16.50;98.10
23329;DHT22;11836;51.050;3.716;2023-03-17T01:13:43;16.50;98.00
23329;DHT22;11836;51.050;3.716;2023-03-17T01:16:10;16.50;98.00
23329;DHT22;11836;51.050;3.716;2023-03-17T01:18:36;16.50;98.10
23329;DHT22;11836;51.050;3.716;2023-03-17T01:21:03;16.50;98.10
23329;DHT22;11836;51.050;3.716;2023-03-17T01:23:29;16.50;98.10
23329;DHT22;11836;51.050;3.716;2023-03-17T01:26:04;16.50;98.00
23329;DHT22;11836;51.050;3.716;2023-03-17T01:28:30;16.50;98.10
23329;DHT22;11836;51.050;3.716;2023-03-17T01:30:57;16.50;98.10
23329;DHT22;11836;51.050;3.716;2023-03-17T01:33:23;16.40;98.00
23329;DHT22;11836;51.050;3.716;2023-03-17T01:35:50;16.50;98.10
23329;DHT22;11836;51.050;3.716;2023-03-17T01:38:15;16.50;98.10
23329;DHT22;11836;51.050;3.716;2023-03-17T01:40:49;16.40;98.10
23329;DHT22;11836;51.050;3.716;2023-03-17T01:52:23;16.40;98.10
23329;DHT22;11836;51.050;3.716;2023-03-17T01:54:45;16.30;98.10
23329;DHT22;11836;51.050;3.716;2023-03-17T02:00:16;16.30;98.20
23329;DHT22;11836;51.050;3.716;2023-03-17T02:02:44;16.30;98.30
23329;DHT22;11836;51.050;3.716;2023-03-17T02:05:14;16.30;98.30
23329;DHT22;11836;51.050;3.716;2023-03-17T02:07:43;16.30;98.30
23329;DHT22;11836;51.050;3.716;2023-03-17T02:10:10;16.30;98.30
23329;DHT22;11836;51.050;3.716;2023-03-17T02:12:39;16.30;98.30
23329;DHT22;11836;51.050;3.716;2023-03-17T02:15:07;16.30;98.30
23329;DHT22;11836;51.050;3.716;2023-03-17T02:17:33;16.30;98.20
23329;DHT22;11836;51.050;3.716;2023-03-17T02:22:54;16.30;98.20
23329;DHT22;11836;51.050;3.716;2023-03-17T02:25:23;16.30;98.30
23329;DHT22;11836;51.050;3.716;2023-03-17T02:27:53;16.30;98.30
23329;DHT22;11836;51.050;3.716;2023-03-17T02:30:22;16.20;98.20
23329;DHT22;11836;51.050;3.716;2023-03-17T02:32:49;16.20;98.20
23329;DHT22;11836;51.050;3.716;2023-03-17T02:35:20;16.20;98.20
23329;DHT22;11836;51.050;3.716;2023-03-17T02:37:46;16.30;98.30
23329;DHT22;11836;51.050;3.716;2023-03-17T02:40:13;16.20;98.30
23329;DHT22;11836;51.050;3.716;2023-03-17T02:42:39;16.20;98.30
23329;DHT22;11836;51.050;3.716;2023-03-17T02:45:07;16.20;98.30
23329;DHT22;11836;51.050;3.716;2023-03-17T02:47:34;16.20;98.20
23329;DHT22;11836;51.050;3.716;2023-03-17T02:50:00;16.20;98.20
23329;DHT22;11836;51.050;3.716;2023-03-17T02:52:26;16.20;98.20
23329;DHT22;11836;51.050;3.716;2023-03-17T02:54:52;16.20;98.30
23329;DHT22;11836;51.050;3.716;2023-03-17T02:57:18;16.20;98.30
23329;DHT22;11836;51.050;3.716;2023-03-17T02:59:44;16.20;98.30
23329;DHT22;11836;51.050;3.716;2023-03-17T03:02:10;16.20;98.30
23329;DHT22;11836;51.050;3.716;2023-03-17T03:04:36;16.20;98.30
23329;DHT22;11836;51.050;3.716;2023-03-17T03:07:02;16.10;98.30
23329;DHT22;11836;51.050;3.716;2023-03-17T03:09:29;15.70;98.20
23329;DHT22;11836;51.050;3.716;2023-03-17T03:11:55;16.20;98.40
23329;DHT22;11836;51.050;3.716;2023-03-17T03:14:21;16.10;98.50
23329;DHT22;11836;51.050;3.716;2023-03-17T03:16:53;16.10;98.50
23329;DHT22;11836;51.050;3.716;2023-03-17T03:19:19;16.10;98.50
23329;DHT22;11836;51.050;3.716;2023-03-17T03:21:45;16.10;98.50
23329;DHT22;11836;51.050;3.716;2023-03-17T03:24:11;16.10;98.60
23329;DHT22;11836;51.050;3.716;2023-03-17T03:26:37;16.10;98.50
23329;DHT22;11836;51.050;3.716;2023-03-17T03:29:03;16.10;98.50
23329;DHT22;11836;51.050;3.716;2023-03-17T03:31:29;16.10;98.40
23329;DHT22;11836;51.050;3.716;2023-03-17T03:33:55;16.10;98.40
23329;DHT22;11836;51.050;3.716;2023-03-17T03:36:21;16.10;98.40
23329;DHT22;11836;51.050;3.716;2023-03-17T03:38:48;16.10;98.40
23329;DHT22;11836;51.050;3.716;2023-03-17T03:41:13;16.10;98.40
23329;DHT22;11836;51.050;3.716;2023-03-17T03:43:40;16.10;98.30
23329;DHT22;11836;51.050;3.716;2023-03-17T03:46:06;16.00;98.30
23329;DHT22;11836;51.050;3.716;2023-03-17T03:48:32;16.10;98.40
23329;DHT22;11836;51.050;3.716;2023-03-17T03:50:59;16.10;98.40
23329;DHT22;11836;51.050;3.716;2023-03-17T03:53:25;16.10;98.40
23329;DHT22;11836;51.050;3.716;2023-03-17T03:55:52;16.10;98.40
23329;DHT22;11836;51.050;3.716;2023-03-17T03:58:18;16.00;98.40
23329;DHT22;11836;51.050;3.716;2023-03-17T04:00:43;16.00;98.40
23329;DHT22;11836;51.050;3.716;2023-03-17T04:03:09;16.00;98.40
23329;DHT22;11836;51.050;3.716;2023-03-17T04:05:35;16.00;98.40
23329;DHT22;11836;51.050;3.716;2023-03-17T04:08:00;16.00;98.40
23329;DHT22;11836;51.050;3.716;2023-03-17T04:10:29;16.00;98.40
23329;DHT22;11836;51.050;3.716;2023-03-17T04:12:56;16.00;98.40
23329;DHT22;11836;51.050;3.716;2023-03-17T04:15:21;16.00;98.40
23329;DHT22;11836;51.050;3.716;2023-03-17T04:17:47;16.00;98.40
23329;DHT22;11836;51.050;3.716;2023-03-17T04:20:14;16.00;98.40
23329;DHT22;11836;51.050;3.716;2023-03-17T04:22:41;16.00;98.40
23329;DHT22;11836;51.050;3.716;2023-03-17T04:25:08;16.00;98.40
23329;DHT22;11836;51.050;3.716;2023-03-17T04:27:34;16.00;98.50
23329;DHT22;11836;51.050;3.716;2023-03-17T04:30:00;16.00;98.50
23329;DHT22;11836;51.050;3.716;2023-03-17T04:32:26;15.90;98.40
23329;DHT22;11836;51.050;3.716;2023-03-17T04:34:52;16.00;98.50
23329;DHT22;11836;51.050;3.716;2023-03-17T04:37:18;15.90;98.50
23329;DHT22;11836;51.050;3.716;2023-03-17T04:39:44;15.90;98.40
23329;DHT22;11836;51.050;3.716;2023-03-17T04:42:10;15.90;98.40
23329;DHT22;11836;51.050;3.716;2023-03-17T04:44:35;15.90;98.40
23329;DHT22;11836;51.050;3.716;2023-03-17T04:47:01;15.90;98.40
23329;DHT22;11836;51.050;3.716;2023-03-17T04:49:27;15.90;98.40
23329;DHT22;11836;51.050;3.716;2023-03-17T04:51:53;15.90;98.40
23329;DHT22;11836;51.050;3.716;2023-03-17T04:54:19;15.90;98.40
23329;DHT22;11836;51.050;3.716;2023-03-17T04:56:46;15.90;98.40
23329;DHT22;11836;51.050;3.716;2023-03-17T04:59:11;15.90;98.40
23329;DHT22;11836;51.050;3.716;2023-03-17T05:01:37;15.90;98.40
23329;DHT22;11836;51.050;3.716;2023-03-17T05:04:03;15.90;98.40
23329;DHT22;11836;51.050;3.716;2023-03-17T05:06:29;15.90;98.40
23329;DHT22;11836;51.050;3.716;2023-03-17T05:08:55;15.90;98.40
23329;DHT22;11836;51.050;3.716;2023-03-17T05:11:20;15.90;98.40
23329;DHT22;11836;51.050;3.716;2023-03-17T05:13:46;15.80;98.40
23329;DHT22;11836;51.050;3.716;2023-03-17T05:16:12;15.80;98.50
23329;DHT22;11836;51.050;3.716;2023-03-17T05:18:38;15.90;98.60
23329;DHT22;11836;51.050;3.716;2023-03-17T05:21:05;15.90;98.60
23329;DHT22;11836;51.050;3.716;2023-03-17T05:23:32;15.80;98.50
23329;DHT22;11836;51.050;3.716;2023-03-17T05:25:58;15.80;98.50
23329;DHT22;11836;51.050;3.716;2023-03-17T05:28:24;15.80;98.50
23329;DHT22;11836;51.050;3.716;2023-03-17T05:30:51;15.80;98.50
23329;DHT22;11836;51.050;3.716;2023-03-17T05:33:17;15.80;98.50
23329;DHT22;11836;51.050;3.716;2023-03-17T05:35:43;15.80;98.40
23329;DHT22;11836;51.050;3.716;2023-03-17T05:38:13;15.80;98.40
23329;DHT22;11836;51.050;3.716;2023-03-17T05:40:40;15.80;98.40
23329;DHT22;11836;51.050;3.716;2023-03-17T05:43:07;15.80;98.40
23329;DHT22;11836;51.050;3.716;2023-03-17T05:45:33;15.80;98.40
23329;DHT22;11836;51.050;3.716;2023-03-17T05:47:59;15.80;98.40
23329;DHT22;11836;51.050;3.716;2023-03-17T05:50:25;15.80;98.40
23329;DHT22;11836;51.050;3.716;2023-03-17T05:52:51;15.80;98.30
23329;DHT22;11836;51.050;3.716;2023-03-17T05:55:18;15.80;98.30
23329;DHT22;11836;51.050;3.716;2023-03-17T05:57:44;15.70;98.30
23329;DHT22;11836;51.050;3.716;2023-03-17T06:00:12;15.70;98.30
23329;DHT22;11836;51.050;3.716;2023-03-17T06:02:38;15.70;98.30
23329;DHT22;11836;51.050;3.716;2023-03-17T06:05:05;15.70;98.30
23329;DHT22;11836;51.050;3.716;2023-03-17T06:07:32;15.70;98.30
23329;DHT22;11836;51.050;3.716;2023-03-17T06:09:58;15.70;98.30
23329;DHT22;11836;51.050;3.716;2023-03-17T06:12:24;15.70;98.30
23329;DHT22;11836;51.050;3.716;2023-03-17T06:14:50;15.70;98.30
23329;DHT22;11836;51.050;3.716;2023-03-17T06:17:16;15.70;98.30
23329;DHT22;11836;51.050;3.716;2023-03-17T06:19:43;15.70;98.30
23329;DHT22;11836;51.050;3.716;2023-03-17T06:22:08;15.70;98.30
23329;DHT22;11836;51.050;3.716;2023-03-17T06:24:34;15.70;98.30
23329;DHT22;11836;51.050;3.716;2023-03-17T06:27:00;15.70;98.30
23329;DHT22;11836;51.050;3.716;2023-03-17T06:29:27;15.70;98.30
23329;DHT22;11836;51.050;3.716;2023-03-17T06:31:53;15.70;98.30
23329;DHT22;11836;51.050;3.716;2023-03-17T06:34:20;15.70;98.30
23329;DHT22;11836;51.050;3.716;2023-03-17T06:36:47;15.70;98.30
23329;DHT22;11836;51.050;3.716;2023-03-17T06:39:14;15.70;98.30
23329;DHT22;11836;51.050;3.716;2023-03-17T06:41:40;15.70;98.20
23329;DHT22;11836;51.050;3.716;2023-03-17T06:44:07;15.70;98.20
23329;DHT22;11836;51.050;3.716;2023-03-17T06:46:33;15.70;98.20
23329;DHT22;11836;51.050;3.716;2023-03-17T06:48:59;15.70;98.30
23329;DHT22;11836;51.050;3.716;2023-03-17T06:51:26;15.70;98.30
23329;DHT22;11836;51.050;3.716;2023-03-17T06:53:51;15.70;98.30
23329;DHT22;11836;51.050;3.716;2023-03-17T06:56:17;15.70;98.30
23329;DHT22;11836;51.050;3.716;2023-03-17T06:58:43;15.80;98.30
23329;DHT22;11836;51.050;3.716;2023-03-17T07:01:10;15.80;98.30
23329;DHT22;11836;51.050;3.716;2023-03-17T07:03:39;15.80;98.30
23329;DHT22;11836;51.050;3.716;2023-03-17T07:06:05;15.80;98.30
23329;DHT22;11836;51.050;3.716;2023-03-17T07:08:31;15.80;98.40
23329;DHT22;11836;51.050;3.716;2023-03-17T07:10:58;15.90;98.40
23329;DHT22;11836;51.050;3.716;2023-03-17T07:13:24;15.90;98.40
23329;DHT22;11836;51.050;3.716;2023-03-17T07:15:50;15.90;98.20
23329;DHT22;11836;51.050;3.716;2023-03-17T07:18:16;15.90;97.80
23329;DHT22;11836;51.050;3.716;2023-03-17T07:20:42;15.90;97.50
23329;DHT22;11836;51.050;3.716;2023-03-17T07:23:21;15.90;97.20
23329;DHT22;11836;51.050;3.716;2023-03-17T07:25:47;15.90;97.40
23329;DHT22;11836;51.050;3.716;2023-03-17T07:28:13;15.80;97.40
23329;DHT22;11836;51.050;3.716;2023-03-17T07:30:39;15.90;97.50
23329;DHT22;11836;51.050;3.716;2023-03-17T07:33:08;15.90;97.50
23329;DHT22;11836;51.050;3.716;2023-03-17T07:35:34;15.90;97.50
23329;DHT22;11836;51.050;3.716;2023-03-17T07:37:59;15.90;97.50
23329;DHT22;11836;51.050;3.716;2023-03-17T07:40:27;15.90;97.60
23329;DHT22;11836;51.050;3.716;2023-03-17T07:42:54;16.00;97.70
23329;DHT22;11836;51.050;3.716;2023-03-17T07:45:37;16.00;97.80
23329;DHT22;11836;51.050;3.716;2023-03-17T07:48:08;16.00;97.90
23329;DHT22;11836;51.050;3.716;2023-03-17T07:50:35;16.10;98.10
23329;DHT22;11836;51.050;3.716;2023-03-17T07:53:07;16.10;98.10
23329;DHT22;11836;51.050;3.716;2023-03-17T07:55:33;16.20;98.10
23329;DHT22;11836;51.050;3.716;2023-03-17T07:58:01;16.20;98.10
23329;DHT22;11836;51.050;3.716;2023-03-17T08:00:27;16.30;98.20
23329;DHT22;11836;51.050;3.716;2023-03-17T08:02:53;16.40;98.20
23329;DHT22;11836;51.050;3.716;2023-03-17T08:05:30;16.50;98.20
23329;DHT22;11836;51.050;3.716;2023-03-17T08:07:56;16.60;98.10
23329;DHT22;11836;51.050;3.716;2023-03-17T08:10:21;16.60;98.00
23329;DHT22;11836;51.050;3.716;2023-03-17T08:12:47;16.70;97.80
23329;DHT22;11836;51.050;3.716;2023-03-17T08:15:17;16.80;97.60
23329;DHT22;11836;51.050;3.716;2023-03-17T08:17:50;16.80;97.40
23329;DHT22;11836;51.050;3.716;2023-03-17T08:20:16;16.90;97.20
23329;DHT22;11836;51.050;3.716;2023-03-17T08:22:42;16.90;97.00
23329;DHT22;11836;51.050;3.716;2023-03-17T08:25:08;17.00;96.90
23329;DHT22;11836;51.050;3.716;2023-03-17T08:27:34;17.00;96.80
23329;DHT22;11836;51.050;3.716;2023-03-17T08:30:01;17.00;96.70
23329;DHT22;11836;51.050;3.716;2023-03-17T08:32:27;17.00;96.60
23329;DHT22;11836;51.050;3.716;2023-03-17T08:34:53;17.00;96.60
23329;DHT22;11836;51.050;3.716;2023-03-17T08:37:19;17.10;96.50
23329;DHT22;11836;51.050;3.716;2023-03-17T08:39:45;17.10;96.50
23329;DHT22;11836;51.050;3.716;2023-03-17T08:42:11;17.10;96.50
23329;DHT22;11836;51.050;3.716;2023-03-17T08:44:36;17.20;96.50
23329;DHT22;11836;51.050;3.716;2023-03-17T08:47:02;17.20;96.50
23329;DHT22;11836;51.050;3.716;2023-03-17T08:49:28;17.20;96.50
23329;DHT22;11836;51.050;3.716;2023-03-17T08:51:55;17.20;96.50
23329;DHT22;11836;51.050;3.716;2023-03-17T08:54:20;17.20;96.50
23329;DHT22;11836;51.050;3.716;2023-03-17T08:56:46;17.30;96.50
23329;DHT22;11836;51.050;3.716;2023-03-17T08:59:12;17.30;96.30
23329;DHT22;11836;51.050;3.716;2023-03-17T09:01:37;17.30;96.30
23329;DHT22;11836;51.050;3.716;2023-03-17T09:04:04;17.20;96.50
23329;DHT22;11836;51.050;3.716;2023-03-17T09:06:30;17.20;96.60
23329;DHT22;11836;51.050;3.716;2023-03-17T09:08:56;16.70;96.50
23329;DHT22;11836;51.050;3.716;2023-03-17T09:11:25;17.20;96.70
23329;DHT22;11836;51.050;3.716;2023-03-17T09:13:55;17.20;96.80
23329;DHT22;11836;51.050;3.716;2023-03-17T09:16:21;17.10;96.80
23329;DHT22;11836;51.050;3.716;2023-03-17T09:18:50;17.10;97.00
23329;DHT22;11836;51.050;3.716;2023-03-17T09:21:16;17.10;97.00
23329;DHT22;11836;51.050;3.716;2023-03-17T09:23:42;17.10;97.00
23329;DHT22;11836;51.050;3.716;2023-03-17T09:26:08;17.10;96.80
23329;DHT22;11836;51.050;3.716;2023-03-17T09:28:34;17.20;96.80
23329;DHT22;11836;51.050;3.716;2023-03-17T09:31:02;17.20;96.80
23329;DHT22;11836;51.050;3.716;2023-03-17T09:33:29;17.20;96.70
23329;DHT22;11836;51.050;3.716;2023-03-17T09:35:55;17.20;96.70
23329;DHT22;11836;51.050;3.716;2023-03-17T09:38:25;17.20;96.60
23329;DHT22;11836;51.050;3.716;2023-03-17T09:49:20;17.20;96.60
23329;DHT22;11836;51.050;3.716;2023-03-17T09:51:53;17.20;96.70
23329;DHT22;11836;51.050;3.716;2023-03-17T09:54:31;17.20;96.80
23329;DHT22;11836;51.050;3.716;2023-03-17T09:57:23;17.30;96.70
23329;DHT22;11836;51.050;3.716;2023-03-17T10:02:42;17.30;97.00
23329;DHT22;11836;51.050;3.716;2023-03-17T10:05:22;17.30;97.20
23329;DHT22;11836;51.050;3.716;2023-03-17T10:13:11;17.40;97.80
23329;DHT22;11836;51.050;3.716;2023-03-17T10:15:50;17.40;97.90
23329;DHT22;11836;51.050;3.716;2023-03-17T10:18:17;17.40;97.80
23329;DHT22;11836;51.050;3.716;2023-03-17T10:20:56;17.40;97.90
23329;DHT22;11836;51.050;3.716;2023-03-17T10:23:34;17.40;97.90
23329;DHT22;11836;51.050;3.716;2023-03-17T10:26:33;17.50;98.10
23329;DHT22;11836;51.050;3.716;2023-03-17T10:29:09;17.50;98.10
23329;DHT22;11836;51.050;3.716;2023-03-17T10:31:40;17.50;98.00
23329;DHT22;11836;51.050;3.716;2023-03-17T10:34:13;17.60;98.20
23329;DHT22;11836;51.050;3.716;2023-03-17T10:36:52;17.50;98.10
23329;DHT22;11836;51.050;3.716;2023-03-17T10:39:25;17.60;98.30
23329;DHT22;11836;51.050;3.716;2023-03-17T10:42:07;17.60;98.10
23329;DHT22;11836;51.050;3.716;2023-03-17T10:47:21;17.60;98.00
23329;DHT22;11836;51.050;3.716;2023-03-17T10:49:49;17.60;98.00
23329;DHT22;11836;51.050;3.716;2023-03-17T10:52:31;17.60;98.10
23329;DHT22;11836;51.050;3.716;2023-03-17T10:55:08;17.60;98.00
23329;DHT22;11836;51.050;3.716;2023-03-17T11:00:35;17.60;97.90
23329;DHT22;11836;51.050;3.716;2023-03-17T11:03:10;17.60;97.80
23329;DHT22;11836;51.050;3.716;2023-03-17T11:05:37;17.20;97.60
23329;DHT22;11836;51.050;3.716;2023-03-17T11:08:16;17.60;97.80
23329;DHT22;11836;51.050;3.716;2023-03-17T11:10:42;17.60;98.00
23329;DHT22;11836;51.050;3.716;2023-03-17T11:13:09;17.60;98.00
23329;DHT22;11836;51.050;3.716;2023-03-17T11:15:50;17.60;98.00
23329;DHT22;11836;51.050;3.716;2023-03-17T11:18:37;17.60;98.60
23329;DHT22;11836;51.050;3.716;2023-03-17T11:21:12;17.60;98.20
23329;DHT22;11836;51.050;3.716;2023-03-17T11:32:02;17.60;98.20
23329;DHT22;11836;51.050;3.716;2023-03-17T11:45:49;17.80;98.20
23329;DHT22;11836;51.050;3.716;2023-03-17T11:48:26;17.80;98.30
23329;DHT22;11836;51.050;3.716;2023-03-17T11:54:29;17.90;98.50
23329;DHT22;11836;51.050;3.716;2023-03-17T11:57:15;17.90;98.40
23329;DHT22;11836;51.050;3.716;2023-03-17T11:59:50;17.90;98.60
23329;DHT22;11836;51.050;3.716;2023-03-17T12:02:40;18.00;98.70
23329;DHT22;11836;51.050;3.716;2023-03-17T12:05:10;18.00;98.70
23329;DHT22;11836;51.050;3.716;2023-03-17T12:07:58;18.00;98.70
23329;DHT22;11836;51.050;3.716;2023-03-17T12:10:29;18.00;98.70
23329;DHT22;11836;51.050;3.716;2023-03-17T12:21:49;18.20;98.90
23329;DHT22;11836;51.050;3.716;2023-03-17T12:24:18;18.20;98.90
23329;DHT22;11836;51.050;3.716;2023-03-17T12:27:55;18.20;99.00
23329;DHT22;11836;51.050;3.716;2023-03-17T12:30:04;18.30;99.10
23329;DHT22;11836;51.050;3.716;2023-03-17T12:32:43;18.20;99.10
23329;DHT22;11836;51.050;3.716;2023-03-17T12:35:22;18.30;99.10
23329;DHT22;11836;51.050;3.716;2023-03-17T12:37:51;18.30;99.20
23329;DHT22;11836;51.050;3.716;2023-03-17T12:40:31;18.30;99.20
23329;DHT22;11836;51.050;3.716;2023-03-17T12:53:59;18.30;99.50
23329;DHT22;11836;51.050;3.716;2023-03-17T12:56:30;18.30;99.50
23329;DHT22;11836;51.050;3.716;2023-03-17T12:59:07;18.40;99.60
23329;DHT22;11836;51.050;3.716;2023-03-17T13:01:37;18.40;99.60
23329;DHT22;11836;51.050;3.716;2023-03-17T13:04:25;18.40;99.70
23329;DHT22;11836;51.050;3.716;2023-03-17T13:07:17;18.50;99.80
23329;DHT22;11836;51.050;3.716;2023-03-17T13:20:50;18.40;99.90
23329;DHT22;11836;51.050;3.716;2023-03-17T13:23:18;18.40;99.90
23329;DHT22;11836;51.050;3.716;2023-03-17T13:26:15;18.40;99.90
23329;DHT22;11836;51.050;3.716;2023-03-17T13:28:39;18.40;99.90
23329;DHT22;11836;51.050;3.716;2023-03-17T13:31:33;18.40;99.90
23329;DHT22;11836;51.050;3.716;2023-03-17T13:34:19;18.50;99.90
23329;DHT22;11836;51.050;3.716;2023-03-17T13:47:32;18.50;99.90
23329;DHT22;11836;51.050;3.716;2023-03-17T13:50:25;18.50;99.90
23329;DHT22;11836;51.050;3.716;2023-03-17T13:53:20;18.50;99.90
23329;DHT22;11836;51.050;3.716;2023-03-17T13:56:09;18.60;99.90
23329;DHT22;11836;51.050;3.716;2023-03-17T14:01:27;18.60;99.90
23329;DHT22;11836;51.050;3.716;2023-03-17T14:04:05;18.50;99.90
23329;DHT22;11836;51.050;3.716;2023-03-17T14:06:36;18.60;99.90
23329;DHT22;11836;51.050;3.716;2023-03-17T14:09:30;18.60;99.90
23329;DHT22;11836;51.050;3.716;2023-03-17T14:11:59;18.60;99.90
23329;DHT22;11836;51.050;3.716;2023-03-17T14:14:34;18.60;99.90
23329;DHT22;11836;51.050;3.716;2023-03-17T14:17:23;18.60;99.90
23329;DHT22;11836;51.050;3.716;2023-03-17T14:22:42;18.60;99.90
23329;DHT22;11836;51.050;3.716;2023-03-17T14:25:17;18.60;99.90
23329;DHT22;11836;51.050;3.716;2023-03-17T14:27:46;18.70;99.90
23329;DHT22;11836;51.050;3.716;2023-03-17T14:30:17;18.60;99.90
23329;DHT22;11836;51.050;3.716;2023-03-17T14:32:58;18.70;99.90
23329;DHT22;11836;51.050;3.716;2023-03-17T14:35:29;18.70;99.90
23329;DHT22;11836;51.050;3.716;2023-03-17T14:37:55;18.70;99.90
23329;DHT22;11836;51.050;3.716;2023-03-17T14:40:23;18.70;99.90
23329;DHT22;11836;51.050;3.716;2023-03-17T14:42:49;18.70;99.90
23329;DHT22;11836;51.050;3.716;2023-03-17T14:45:28;18.70;99.90
23329;DHT22;11836;51.050;3.716;2023-03-17T14:47:57;18.70;99.90
23329;DHT22;11836;51.050;3.716;2023-03-17T14:50:30;18.70;99.90
23329;DHT22;11836;51.050;3.716;2023-03-17T14:52:59;18.70;99.70
23329;DHT22;11836;51.050;3.716;2023-03-17T14:55:39;18.60;99.70
23329;DHT22;11836;51.050;3.716;2023-03-17T14:58:15;18.70;99.60
23329;DHT22;11836;51.050;3.716;2023-03-17T15:00:45;18.70;99.60
23329;DHT22;11836;51.050;3.716;2023-03-17T15:03:19;18.70;99.60
23329;DHT22;11836;51.050;3.716;2023-03-17T15:05:46;18.70;99.50
23329;DHT22;11836;51.050;3.716;2023-03-17T15:11:02;18.70;99.50
23329;DHT22;11836;51.050;3.716;2023-03-17T15:13:32;18.60;99.30
23329;DHT22;11836;51.050;3.716;2023-03-17T15:16:49;18.70;99.30
23329;DHT22;11836;51.050;3.716;2023-03-17T15:21:41;18.70;99.70
23329;DHT22;11836;51.050;3.716;2023-03-17T15:24:58;18.60;99.30
23329;DHT22;11836;51.050;3.716;2023-03-17T15:27:17;18.60;99.40
23329;DHT22;11836;51.050;3.716;2023-03-17T15:29:44;18.60;99.50
23329;DHT22;11836;51.050;3.716;2023-03-17T15:32:15;18.60;99.40
23329;DHT22;11836;51.050;3.716;2023-03-17T15:34:41;18.60;99.50
23329;DHT22;11836;51.050;3.716;2023-03-17T15:37:19;18.60;99.50
23329;DHT22;11836;51.050;3.716;2023-03-17T15:39:46;18.60;99.50
23329;DHT22;11836;51.050;3.716;2023-03-17T15:42:12;18.60;99.40
23329;DHT22;11836;51.050;3.716;2023-03-17T15:44:37;18.60;99.40
23329;DHT22;11836;51.050;3.716;2023-03-17T15:47:03;18.60;99.50
23329;DHT22;11836;51.050;3.716;2023-03-17T15:49:29;18.60;99.50
23329;DHT22;11836;51.050;3.716;2023-03-17T15:51:55;18.60;99.60
23329;DHT22;11836;51.050;3.716;2023-03-17T15:54:21;18.60;99.60
23329;DHT22;11836;51.050;3.716;2023-03-17T15:56:46;18.60;99.50
23329;DHT22;11836;51.050;3.716;2023-03-17T15:59:12;18.50;99.50
23329;DHT22;11836;51.050;3.716;2023-03-17T16:01:38;18.50;99.40
23329;DHT22;11836;51.050;3.716;2023-03-17T16:04:05;18.50;99.40
23329;DHT22;11836;51.050;3.716;2023-03-17T16:06:32;18.50;99.50
23329;DHT22;11836;51.050;3.716;2023-03-17T16:08:58;18.50;99.60
23329;DHT22;11836;51.050;3.716;2023-03-17T16:11:27;18.50;99.60
23329;DHT22;11836;51.050;3.716;2023-03-17T16:13:55;18.50;99.60
23329;DHT22;11836;51.050;3.716;2023-03-17T16:16:42;18.50;99.60
23329;DHT22;11836;51.050;3.716;2023-03-17T16:19:17;18.50;99.60
23329;DHT22;11836;51.050;3.716;2023-03-17T16:21:47;18.50;99.50
23329;DHT22;11836;51.050;3.716;2023-03-17T16:24:18;18.40;99.40
23329;DHT22;11836;51.050;3.716;2023-03-17T16:26:44;18.40;99.40
23329;DHT22;11836;51.050;3.716;2023-03-17T16:29:15;18.40;99.30
23329;DHT22;11836;51.050;3.716;2023-03-17T16:31:42;18.40;99.30
23329;DHT22;11836;51.050;3.716;2023-03-17T16:34:15;18.40;99.40
23329;DHT22;11836;51.050;3.716;2023-03-17T16:36:42;18.40;99.20
23329;DHT22;11836;51.050;3.716;2023-03-17T16:39:19;18.30;99.10
23329;DHT22;11836;51.050;3.716;2023-03-17T16:41:55;18.30;99.10
23329;DHT22;11836;51.050;3.716;2023-03-17T16:44:21;18.40;99.00
23329;DHT22;11836;51.050;3.716;2023-03-17T16:46:48;18.30;99.00
23329;DHT22;11836;51.050;3.716;2023-03-17T16:49:15;18.30;99.00
23329;DHT22;11836;51.050;3.716;2023-03-17T16:51:42;18.30;99.10
23329;DHT22;11836;51.050;3.716;2023-03-17T16:54:09;18.30;99.20
23329;DHT22;11836;51.050;3.716;2023-03-17T16:56:36;18.30;99.20
23329;DHT22;11836;51.050;3.716;2023-03-17T16:59:02;18.30;99.20
23329;DHT22;11836;51.050;3.716;2023-03-17T17:01:28;18.30;99.20
23329;DHT22;11836;51.050;3.716;2023-03-17T17:03:56;18.30;99.50
23329;DHT22;11836;51.050;3.716;2023-03-17T17:06:22;18.40;99.10
23329;DHT22;11836;51.050;3.716;2023-03-17T17:08:49;18.30;99.10
23329;DHT22;11836;51.050;3.716;2023-03-17T17:11:16;18.30;99.00
23329;DHT22;11836;51.050;3.716;2023-03-17T17:13:44;18.30;99.00
23329;DHT22;11836;51.050;3.716;2023-03-17T17:16:24;18.30;99.00
23329;DHT22;11836;51.050;3.716;2023-03-17T17:18:50;18.30;99.00
23329;DHT22;11836;51.050;3.716;2023-03-17T17:21:19;18.20;99.00
23329;DHT22;11836;51.050;3.716;2023-03-17T17:23:45;18.20;99.00
23329;DHT22;11836;51.050;3.716;2023-03-17T17:26:11;18.20;99.10
23329;DHT22;11836;51.050;3.716;2023-03-17T17:28:37;18.20;99.10
23329;DHT22;11836;51.050;3.716;2023-03-17T17:31:05;18.20;99.10
23329;DHT22;11836;51.050;3.716;2023-03-17T17:33:32;18.20;99.10
23329;DHT22;11836;51.050;3.716;2023-03-17T17:35:58;18.20;99.00
23329;DHT22;11836;51.050;3.716;2023-03-17T17:38:26;18.20;99.00